Time;durP1;ratioP1;P1;durP2;ratioP2;P2;SDS_P1;SDS_P2;PMS_P1;PMS_P2;Temp;Humidity;BMP_temperature;BMP_pressure;BME280_temperature;BME280_humidity;BME280_pressure;Samples;Min_cycle;Max_cycle;Signal;HPM_P1;HPM_P2
2022/08/16 00:01:39;;;;;;;7.97;6.03;;;;;;;20.18;70.64;98700.47;6226638;22;20015;-91
2022/08/16 00:04:04;;;;;;;12.05;6.50;;;;;;;20.23;71.13;98711.16;6226991;22;20038;-92
2022/08/16 00:06:30;;;;;;;8.50;5.97;;;;;;;20.26;70.58;98715.16;6227132;22;19996;-91
2022/08/16 00:08:56;;;;;;;8.95;6.07;;;;;;;20.28;70.74;98716.38;6202150;22;20462;-91
2022/08/16 00:11:21;;;;;;;8.48;6.07;;;;;;;20.17;70.70;98718.81;6252669;22;19995;-91
2022/08/16 00:13:48;;;;;;;6.78;5.65;;;;;;;20.10;71.06;98713.16;6202162;22;19984;-90
2022/08/16 00:16:13;;;;;;;6.40;5.30;;;;;;;20.02;71.09;98711.34;6226747;22;19996;-91
2022/08/16 00:18:39;;;;;;;7.85;6.40;;;;;;;20.00;71.40;98713.63;6227104;22;20011;-92
2022/08/16 00:21:04;;;;;;;7.95;6.18;;;;;;;19.90;71.20;98706.75;6201964;22;20006;-91
2022/08/16 00:23:30;;;;;;;9.75;6.47;;;;;;;19.96;71.78;98721.75;6201899;22;20362;-92
2022/08/16 00:25:55;;;;;;;9.55;6.43;;;;;;;19.94;71.57;98717.75;6226010;22;20024;-91
2022/08/16 00:28:22;;;;;;;9.13;6.05;;;;;;;19.88;71.43;98700.84;6199964;22;20027;-92
2022/08/16 00:30:48;;;;;;;7.82;6.35;;;;;;;19.99;71.16;98701.94;6200766;22;20021;-92
2022/08/16 00:33:13;;;;;;;7.60;5.75;;;;;;;20.14;70.95;98714.03;6200482;22;19996;-92
2022/08/16 00:35:39;;;;;;;8.45;5.85;;;;;;;20.00;71.67;98705.44;6200149;22;20010;-91
2022/08/16 00:38:04;;;;;;;10.63;6.07;;;;;;;19.87;71.85;98699.22;6224825;22;20000;-91
2022/08/16 00:40:40;;;;;;;9.77;6.15;;;;;;;19.95;71.54;98722.09;6224329;22;19996;-91
2022/08/16 00:43:41;;;;;;;8.20;6.15;;;;;;;19.99;71.45;98728.47;6200637;22;20004;-94
2022/08/16 00:46:11;;;;;;;8.93;6.07;;;;;;;19.83;71.83;98714.72;6075784;23;20005;-90
2022/08/16 00:48:37;;;;;;;9.57;6.60;;;;;;;19.77;71.96;98714.16;6199313;22;20346;-91
2022/08/16 00:51:03;;;;;;;8.52;6.20;;;;;;;19.70;71.97;98708.50;6199616;22;20075;-93
2022/08/16 00:53:28;;;;;;;10.82;7.75;;;;;;;19.73;71.74;98720.66;6200069;22;19996;-92
2022/08/16 00:55:55;;;;;;;7.70;5.95;;;;;;;19.70;71.80;98715.88;6199734;22;20000;-92
2022/08/16 00:58:21;;;;;;;9.50;6.05;;;;;;;19.79;71.62;98733.75;6199378;22;20083;-91
2022/08/16 01:00:47;;;;;;;9.20;6.30;;;;;;;19.72;72.08;98736.28;6199692;22;20000;-91
2022/08/16 01:03:14;;;;;;;8.35;5.93;;;;;;;19.78;71.84;98728.66;6199229;22;20007;-92
2022/08/16 01:05:39;;;;;;;9.55;6.57;;;;;;;19.75;71.86;98745.72;6199876;22;20004;-91
2022/08/16 01:08:05;;;;;;;9.43;5.97;;;;;;;19.70;72.11;98744.03;6184089;23;20020;-92
2022/08/16 01:10:31;;;;;;;6.93;5.78;;;;;;;19.70;71.90;98740.47;6194259;23;20015;-92
2022/08/16 01:12:57;;;;;;;9.40;6.45;;;;;;;19.77;72.42;98757.09;6169276;23;19996;-91
2022/08/16 01:15:23;;;;;;;6.93;6.13;;;;;;;19.71;72.35;98750.28;6169274;23;20008;-91
2022/08/16 01:17:48;;;;;;;8.27;5.65;;;;;;;19.55;72.24;98731.84;6194206;23;20000;-91
2022/08/16 01:20:16;;;;;;;10.98;6.13;;;;;;;19.65;72.69;98759.81;6169714;23;20004;-92
2022/08/16 01:22:51;;;;;;;8.32;5.60;;;;;;;19.56;72.70;98755.25;6194199;23;20023;-90
2022/08/16 01:25:25;;;;;;;9.57;6.03;;;;;;;19.41;72.90;98741.53;6246794;23;19996;-91
2022/08/16 01:27:52;;;;;;;8.15;6.40;;;;;;;19.26;72.87;98716.53;6170305;23;20347;-91
2022/08/16 01:30:22;;;;;;;9.30;6.32;;;;;;;19.26;73.17;98732.91;6194414;23;20000;-91
2022/08/16 01:32:48;;;;;;;7.75;6.72;;;;;;;19.19;73.17;98729.94;6195257;23;19992;-92
2022/08/16 01:35:18;;;;;;;11.05;6.60;;;;;;;19.22;73.69;98744.84;6170179;23;20006;-92
2022/08/16 01:37:50;;;;;;;7.93;6.07;;;;;;;19.05;73.91;98740.38;6170236;23;20004;-91
2022/08/16 01:40:16;;;;;;;9.57;6.10;;;;;;;19.14;74.21;98762.91;6169990;23;20000;-92
2022/08/16 01:42:43;;;;;;;9.02;6.68;;;;;;;19.09;74.18;98754.94;6194188;23;20027;-92
2022/08/16 01:45:08;;;;;;;9.55;6.32;;;;;;;18.95;73.97;98734.25;6195135;23;19996;-91
2022/08/16 01:47:35;;;;;;;10.40;6.40;;;;;;;19.07;74.29;98760.75;6194170;23;19996;-92
2022/08/16 01:50:00;;;;;;;8.10;6.30;;;;;;;19.06;74.21;98753.69;6194098;23;20439;-90
2022/08/16 01:52:25;;;;;;;8.45;6.63;;;;;;;19.12;73.92;98757.00;6194877;23;19996;-92
2022/08/16 01:54:51;;;;;;;11.05;6.03;;;;;;;19.13;73.40;98753.13;6195100;23;20004;-91
2022/08/16 01:57:16;;;;;;;7.45;6.10;;;;;;;19.13;73.62;98743.03;6220098;23;19996;-92
2022/08/16 01:59:42;;;;;;;10.18;7.22;;;;;;;19.16;73.78;98736.09;6193687;23;20011;-91
2022/08/16 02:02:08;;;;;;;7.93;6.28;;;;;;;19.14;74.14;98730.97;6194852;23;20035;-92
2022/08/16 02:04:33;;;;;;;7.85;5.90;;;;;;;19.15;74.16;98740.75;6169698;23;20024;-92
2022/08/16 02:06:59;;;;;;;8.10;6.43;;;;;;;19.12;73.75;98729.72;6194681;22;20000;-91
2022/08/16 02:09:25;;;;;;;11.65;6.50;;;;;;;19.07;74.05;98719.81;6218176;23;20316;-92
2022/08/16 02:11:57;;;;;;;7.43;5.57;;;;;;;19.18;73.76;98731.09;6168772;23;20000;-91
2022/08/16 02:14:25;;;;;;;8.18;6.28;;;;;;;19.13;73.82;98729.38;6193192;23;20335;-92
2022/08/16 02:16:50;;;;;;;11.27;6.18;;;;;;;19.12;74.41;98727.78;6169007;23;20004;-92
2022/08/16 02:19:18;;;;;;;10.10;6.85;;;;;;;19.03;74.32;98721.66;6168482;23;20066;-91
2022/08/16 02:21:51;;;;;;;9.88;6.53;;;;;;;18.97;74.40;98726.53;6194613;23;20003;-91
2022/08/16 02:24:17;;;;;;;9.57;5.95;;;;;;;19.04;74.38;98736.88;6167878;23;20008;-91
2022/08/16 02:26:42;;;;;;;10.27;6.38;;;;;;;18.89;74.86;98727.44;6168408;23;20083;-93
2022/08/16 02:29:10;;;;;;;10.40;6.65;;;;;;;18.86;74.43;98730.81;6193006;23;19996;-91
2022/08/16 02:31:35;;;;;;;10.02;6.35;;;;;;;18.88;74.43;98736.72;6218396;23;20000;-92
2022/08/16 02:34:01;;;;;;;10.90;6.47;;;;;;;18.93;74.43;98743.91;6194349;23;19992;-91
2022/08/16 02:36:26;;;;;;;8.13;6.13;;;;;;;18.95;74.16;98738.91;6217307;23;20004;-92
2022/08/16 02:38:52;;;;;;;13.75;6.95;;;;;;;19.05;73.79;98735.75;6168068;23;20082;-92
2022/08/16 02:41:17;;;;;;;8.98;6.80;;;;;;;19.18;73.27;98736.53;6193325;23;20000;-92
2022/08/16 02:43:43;;;;;;;11.02;6.32;;;;;;;19.40;72.42;98748.91;6167918;23;20000;-91
2022/08/16 02:46:08;;;;;;;9.00;6.63;;;;;;;19.23;72.99;98743.69;6168237;23;20187;-91
2022/08/16 02:48:34;;;;;;;7.63;6.03;;;;;;;19.21;73.24;98760.41;6167917;23;20351;-91
2022/08/16 02:51:01;;;;;;;8.23;6.22;;;;;;;19.22;73.24;98758.50;6192471;23;20011;-92
2022/08/16 02:53:26;;;;;;;7.97;5.88;;;;;;;19.20;73.16;98766.22;6194252;23;20072;-91
2022/08/16 02:55:52;;;;;;;11.27;7.15;;;;;;;19.15;73.25;98768.03;6192859;23;20000;-91
2022/08/16 02:58:19;;;;;;;9.20;6.10;;;;;;;19.05;73.63;98759.47;6218292;23;20003;-91
2022/08/16 03:00:44;;;;;;;9.07;7.13;;;;;;;19.11;73.57;98772.59;6167606;23;20004;-91
2022/08/16 03:03:09;;;;;;;9.55;6.68;;;;;;;19.00;73.32;98774.16;6167906;23;20004;-91
2022/08/16 03:05:35;;;;;;;11.13;6.28;;;;;;;18.87;73.28;98770.63;6168083;23;20000;-90
2022/08/16 03:08:00;;;;;;;9.43;6.32;;;;;;;18.83;73.31;98761.50;6126654;23;1185435;-92
2022/08/16 03:10:26;;;;;;;7.45;6.47;;;;;;;18.90;73.18;98777.31;6194198;23;20019;-92
2022/08/16 03:12:51;;;;;;;8.73;6.68;;;;;;;18.99;72.41;98772.56;6194914;23;20358;-91
2022/08/16 03:15:17;;;;;;;9.02;6.20;;;;;;;19.08;71.96;98778.72;6218403;23;20011;-92
2022/08/16 03:17:43;;;;;;;9.25;6.30;;;;;;;19.24;71.47;98778.06;6218378;23;20000;-92
2022/08/16 03:20:10;;;;;;;11.43;6.55;;;;;;;19.22;71.22;98769.41;6218617;23;20454;-92
2022/08/16 03:22:35;;;;;;;9.80;6.32;;;;;;;19.23;71.06;98771.78;6243827;23;20015;-92
2022/08/16 03:25:03;;;;;;;8.40;6.18;;;;;;;19.23;71.05;98771.78;6219140;23;20008;-92
2022/08/16 03:27:29;;;;;;;10.52;6.10;;;;;;;19.28;70.62;98777.03;6194077;23;20431;-92
2022/08/16 03:29:54;;;;;;;12.05;6.43;;;;;;;19.44;70.21;98768.13;6218483;23;20074;-91
2022/08/16 03:32:20;;;;;;;10.15;6.38;;;;;;;19.34;70.57;98767.47;6194000;23;20003;-92
2022/08/16 03:34:46;;;;;;;7.68;6.05;;;;;;;19.34;70.99;98774.84;6218385;23;20099;-91
2022/08/16 03:37:12;;;;;;;11.90;7.10;;;;;;;19.26;72.12;98770.28;6219677;23;19995;-92
2022/08/16 03:39:38;;;;;;;7.82;6.13;;;;;;;19.21;72.21;98776.78;6220680;23;20011;-92
2022/08/16 03:42:04;;;;;;;10.95;7.20;;;;;;;19.14;72.66;98779.28;6220397;23;20066;-93
2022/08/16 03:44:31;;;;;;;8.55;6.15;;;;;;;19.10;72.77;98784.63;6196395;23;20012;-94
2022/08/16 03:46:56;;;;;;;11.60;7.35;;;;;;;19.03;72.92;98792.59;6222180;23;20339;-95
2022/08/16 03:49:22;;;;;;;8.32;6.18;;;;;;;18.87;73.49;98786.97;6221260;23;20000;-94
2022/08/16 03:51:47;;;;;;;10.48;6.90;;;;;;;18.73;73.98;98770.88;6221538;23;20423;-94
2022/08/16 03:54:13;;;;;;;10.75;7.30;;;;;;;18.86;73.96;98792.78;6221430;23;20058;-93
2022/08/16 03:56:39;;;;;;;15.65;6.95;;;;;;;18.83;73.51;98788.78;6221784;23;19996;-94
2022/08/16 03:59:04;;;;;;;10.88;7.18;;;;;;;18.81;73.82;98780.16;6220925;23;20457;-94
2022/08/16 04:01:30;;;;;;;8.63;6.43;;;;;;;18.77;73.85;98773.75;6195889;23;20000;-94
2022/08/16 04:03:55;;;;;;;8.30;6.22;;;;;;;18.71;74.59;98789.53;6221001;23;20008;-93
2022/08/16 04:06:21;;;;;;;11.68;7.13;;;;;;;18.46;74.56;98769.56;6220196;23;20011;-93
2022/08/16 04:08:47;;;;;;;13.93;6.57;;;;;;;18.60;74.13;98791.09;6225301;22;20031;-93
2022/08/16 04:11:12;;;;;;;11.23;7.05;;;;;;;18.46;74.78;98772.28;6200863;22;20011;-93
2022/08/16 04:13:38;;;;;;;15.57;8.30;;;;;;;18.43;75.45;98785.78;6201824;22;20026;-94
2022/08/16 04:16:04;;;;;;;14.23;7.88;;;;;;;18.48;75.52;98791.03;6202393;22;20002;-91
2022/08/16 04:18:30;;;;;;;9.48;7.07;;;;;;;18.44;75.27;98787.41;6250857;22;19999;-93
2022/08/16 04:20:55;;;;;;;14.35;7.10;;;;;;;18.58;75.42;98799.59;6227030;22;20053;-93
2022/08/16 04:23:43;;;;;;;;;;;;;;;;;;;;;
2022/08/16 04:26:18;;;;;;;9.55;7.18;;;;;;;18.45;75.34;98776.16;6234659;22;20067;-93
2022/08/16 04:28:49;;;;;;;10.85;7.32;;;;;;;18.46;75.31;98768.78;6204134;22;20038;-93
2022/08/16 04:34:34;;;;;;;20.70;7.28;;;;;;;18.68;75.12;98782.03;6279766;22;20480;-91
2022/08/16 04:37:00;;;;;;;9.10;6.95;;;;;;;18.64;74.75;98763.97;6200795;22;20000;-93
2022/08/16 04:39:26;;;;;;;10.45;7.13;;;;;;;18.80;74.21;98781.31;6200570;22;20408;-95
2022/08/16 04:41:51;;;;;;;9.70;7.07;;;;;;;18.99;73.60;98791.69;6201470;22;20004;-92
2022/08/16 04:44:17;;;;;;;14.05;7.97;;;;;;;19.01;73.36;98780.41;6225073;22;20008;-94
2022/08/16 04:46:42;;;;;;;15.95;7.53;;;;;;;19.12;73.17;98779.63;6200499;22;20006;-93
2022/08/16 04:49:10;;;;;;;12.93;7.43;;;;;;;19.29;72.64;98791.47;6200460;22;20338;-92
2022/08/16 04:51:36;;;;;;;10.55;6.95;;;;;;;19.38;72.36;98782.03;6201667;22;20430;-94
2022/08/16 04:54:02;;;;;;;13.75;7.60;;;;;;;19.52;71.03;98794.53;6226251;22;20019;-94
2022/08/16 04:56:27;;;;;;;19.90;9.85;;;;;;;19.66;70.32;98775.84;6229583;22;20030;-94
2022/08/16 04:58:53;;;;;;;8.57;6.63;;;;;;;19.65;70.06;98777.00;6201513;22;19996;-92
2022/08/16 05:01:19;;;;;;;8.73;5.90;;;;;;;19.58;69.89;98771.31;6253258;22;20365;-94
2022/08/16 05:03:44;;;;;;;11.90;5.82;;;;;;;19.72;69.83;98779.19;6226090;22;20000;-94
2022/08/16 05:06:11;;;;;;;12.65;6.05;;;;;;;19.78;69.76;98769.63;6201746;22;20003;-92
2022/08/16 05:08:36;;;;;;;9.55;5.95;;;;;;;19.84;68.19;98770.97;6180180;23;20038;-93
2022/08/16 05:11:07;;;;;;;8.63;6.40;;;;;;;20.07;67.30;98765.78;6171039;23;20004;-93
2022/08/16 05:13:35;;;;;;;7.50;5.65;;;;;;;20.13;67.00;98758.13;6221433;23;19996;-90
2022/08/16 05:16:03;;;;;;;8.57;5.82;;;;;;;20.48;66.57;98782.13;6194869;23;20004;-91
2022/08/16 05:18:29;;;;;;;9.88;6.05;;;;;;;20.31;66.88;98761.34;6170147;23;20381;-91
2022/08/16 05:20:55;;;;;;;9.13;6.53;;;;;;;20.38;66.66;98769.78;6169049;23;19996;-90
2022/08/16 05:23:23;;;;;;;9.68;6.80;;;;;;;20.32;66.53;98758.28;6169416;23;20026;-91
2022/08/16 05:25:49;;;;;;;10.70;6.60;;;;;;;20.61;66.24;98782.88;6195356;23;20481;-91
2022/08/16 05:28:15;;;;;;;6.60;5.35;;;;;;;20.62;65.90;98768.09;6168987;23;20000;-91
2022/08/16 05:30:41;;;;;;;8.88;6.07;;;;;;;20.66;65.26;98774.44;6196973;23;20003;-91
2022/08/16 05:33:07;;;;;;;7.57;5.55;;;;;;;20.78;64.87;98772.44;6195766;23;20049;-93
2022/08/16 05:35:33;;;;;;;13.50;6.72;;;;;;;20.95;65.82;98778.72;6197562;23;20003;-93
2022/08/16 05:37:58;;;;;;;6.88;5.75;;;;;;;21.08;64.85;98772.00;6196450;23;20000;-92
2022/08/16 05:40:24;;;;;;;8.57;5.35;;;;;;;21.18;64.11;98787.09;6195228;23;20070;-93
2022/08/16 05:42:51;;;;;;;10.15;5.72;;;;;;;21.25;64.54;98770.88;6169951;23;20504;-93
2022/08/16 05:45:17;;;;;;;7.25;5.38;;;;;;;21.27;63.70;98765.00;6194201;23;20011;-92
2022/08/16 05:47:42;;;;;;;9.57;5.88;;;;;;;21.60;63.74;98794.78;6195014;23;20415;-92
2022/08/16 05:50:08;;;;;;;9.63;6.63;;;;;;;21.66;63.13;98770.66;6169691;23;20000;-93
2022/08/16 05:52:34;;;;;;;11.95;5.72;;;;;;;21.77;62.31;98779.91;6172586;23;20386;-92
2022/08/16 05:54:59;;;;;;;7.47;5.88;;;;;;;21.79;62.15;98781.13;6170836;23;20051;-96
2022/08/16 05:57:25;;;;;;;8.50;6.03;;;;;;;21.94;61.75;98781.44;6172444;23;20034;-93
2022/08/16 05:59:51;;;;;;;9.27;5.88;;;;;;;22.08;61.70;98770.78;6169078;23;20004;-93
2022/08/16 06:02:23;;;;;;;7.45;5.60;;;;;;;22.31;61.16;98775.59;6169606;23;20016;-96
2022/08/16 06:04:48;;;;;;;9.00;5.40;;;;;;;22.26;60.19;98767.63;6171606;23;20036;-93
2022/08/16 06:07:14;;;;;;;9.45;5.55;;;;;;;22.42;59.86;98768.34;6193279;22;20024;-92
2022/08/16 06:09:39;;;;;;;12.75;6.88;;;;;;;22.71;58.92;98791.63;6193627;23;20008;-91
2022/08/16 06:12:05;;;;;;;8.57;6.25;;;;;;;22.77;58.89;98787.44;6193629;23;20027;-92
2022/08/16 06:14:31;;;;;;;7.90;5.47;;;;;;;23.00;58.58;98792.13;6170231;23;20000;-94
2022/08/16 06:16:56;;;;;;;25.88;16.38;;;;;;;23.19;58.37;98785.81;6170417;23;20000;-93
2022/08/16 06:19:21;;;;;;;23.30;9.18;;;;;;;23.39;58.45;98792.03;6194734;23;20439;-92
2022/08/16 06:21:47;;;;;;;9.15;5.05;;;;;;;23.60;57.37;98792.34;6196471;23;20000;-94
2022/08/16 06:24:51;;;;;;;7.25;5.13;;;;;;;23.77;55.83;98782.81;6199146;23;20000;-96
2022/08/16 06:27:33;;;;;;;11.02;5.32;;;;;;;23.85;55.83;98778.19;6202018;23;20351;-93
2022/08/16 06:29:59;;;;;;;6.45;4.93;;;;;;;23.84;54.96;98797.81;6173287;23;20088;-94
2022/08/16 06:32:24;;;;;;;10.60;5.88;;;;;;;24.14;54.45;98782.13;6196035;23;20020;-95
2022/08/16 06:34:50;;;;;;;7.20;5.30;;;;;;;24.19;54.81;98792.00;6171393;23;20004;-95
2022/08/16 06:37:15;;;;;;;11.82;8.18;;;;;;;24.32;54.12;98773.28;6169089;23;20011;-92
2022/08/16 06:39:41;;;;;;;7.85;6.13;;;;;;;24.56;53.29;98772.78;6169075;23;20007;-94
2022/08/16 06:42:07;;;;;;;7.53;6.05;;;;;;;24.83;52.71;98778.19;6169561;23;20027;-95
2022/08/16 06:44:34;;;;;;;11.02;6.25;;;;;;;25.16;52.16;98788.31;6194187;23;20038;-94
2022/08/16 06:46:59;;;;;;;9.82;5.65;;;;;;;25.20;51.50;98774.56;6194991;23;20556;-94
2022/08/16 06:49:28;;;;;;;7.97;5.40;;;;;;;25.41;51.40;98771.22;6170271;23;20035;-95
2022/08/16 06:51:54;;;;;;;6.88;4.97;;;;;;;25.61;50.92;98774.50;6169094;23;20347;-94
2022/08/16 06:54:19;;;;;;;8.52;5.30;;;;;;;25.73;50.82;98765.09;6195775;23;20055;-95
2022/08/16 06:56:45;;;;;;;7.07;5.32;;;;;;;25.94;48.29;98767.22;6223034;23;20035;-96
2022/08/16 06:59:12;;;;;;;8.52;5.60;;;;;;;26.10;48.25;98764.13;6223548;23;19996;-96
2022/08/16 07:01:38;;;;;;;5.72;4.88;;;;;;;26.28;47.93;98766.97;6196347;23;20375;-94
2022/08/16 07:04:03;;;;;;;8.60;5.05;;;;;;;26.54;46.77;98768.63;6200888;23;20004;-96
2022/08/16 07:06:30;;;;;;;7.07;5.07;;;;;;;26.60;46.67;98770.66;6199019;23;20003;-94
2022/08/16 07:08:55;;;;;;;6.60;5.38;;;;;;;26.72;46.24;98763.16;6217410;23;20043;-96
2022/08/16 07:11:25;;;;;;;7.55;5.00;;;;;;;26.83;45.64;98755.69;6264751;22;19992;-95
2022/08/16 07:13:53;;;;;;;7.32;4.30;;;;;;;27.10;45.36;98780.19;6238531;23;20345;-90
2022/08/16 07:16:19;;;;;;;8.65;5.10;;;;;;;27.18;45.33;98765.97;6220498;23;20744;-90
2022/08/16 07:18:48;;;;;;;6.65;5.00;;;;;;;27.36;45.22;98765.97;6194477;23;20015;-90
2022/08/16 07:21:14;;;;;;;6.50;4.88;;;;;;;27.45;44.55;98771.09;6219580;23;20026;-90
2022/08/16 07:23:45;;;;;;;5.72;4.45;;;;;;;27.53;42.45;98761.63;6219469;23;20008;-90
2022/08/16 07:26:12;;;;;;;9.50;5.30;;;;;;;27.67;42.92;98760.03;6196328;23;20087;-89
2022/08/16 07:28:40;;;;;;;6.13;4.38;;;;;;;27.81;41.06;98771.84;6219861;23;20004;-89
2022/08/16 07:31:05;;;;;;;5.85;4.20;;;;;;;27.78;41.63;98744.16;6245051;23;19996;-89
2022/08/16 07:33:37;;;;;;;6.18;4.57;;;;;;;27.92;40.96;98746.13;6218223;23;19997;-89
2022/08/16 07:36:06;;;;;;;4.90;3.92;;;;;;;27.96;40.02;98749.69;6218695;23;20320;-92
2022/08/16 07:38:32;;;;;;;7.18;4.30;;;;;;;28.12;40.63;98751.97;6195251;23;20435;-92
2022/08/16 07:41:01;;;;;;;4.80;4.20;;;;;;;28.27;40.06;98736.09;6220593;23;20062;-92
2022/08/16 07:43:26;;;;;;;5.50;4.30;;;;;;;28.39;39.78;98766.91;6221278;23;20011;-96
2022/08/16 07:45:52;;;;;;;5.47;4.18;;;;;;;28.41;38.29;98755.41;6203462;23;20012;-94
2022/08/16 07:48:18;;;;;;;8.27;4.82;;;;;;;28.30;38.92;98757.44;6201614;23;20031;-94
2022/08/16 07:50:44;;;;;;;6.28;4.22;;;;;;;28.39;38.92;98746.72;6222206;23;20000;-94
2022/08/16 07:53:12;;;;;;;5.68;4.32;;;;;;;28.30;38.67;98758.22;6221893;23;20038;-95
2022/08/16 07:55:38;;;;;;;5.30;4.30;;;;;;;28.40;38.80;98770.44;6223884;23;20046;-95
2022/08/16 07:58:07;;;;;;;4.90;4.28;;;;;;;28.27;38.05;98758.25;6207702;23;20001;-96
2022/08/16 08:00:37;;;;;;;6.00;4.40;;;;;;;28.43;38.16;98764.13;6218562;22;20000;-96
2022/08/16 08:03:03;;;;;;;5.32;4.15;;;;;;;28.51;37.65;98762.88;6214274;23;19988;-95
2022/08/16 08:05:28;;;;;;;4.82;4.13;;;;;;;28.49;37.85;98753.38;6257206;23;20427;-96
2022/08/16 08:07:55;;;;;;;4.88;4.22;;;;;;;28.58;38.34;98770.38;6218876;23;20020;-96
2022/08/16 08:10:42;;;;;;;5.72;3.78;;;;;;;28.39;37.63;98753.03;6237230;23;19995;-96
2022/08/16 08:13:16;;;;;;;7.95;4.15;;;;;;;28.63;37.70;98758.09;6187523;23;20024;-96
2022/08/16 08:16:14;;;;;;;5.63;4.38;;;;;;;28.69;37.82;98746.16;6204644;23;20003;-94
2022/08/16 08:25:28;;;;;;;;;;;;;;;29.06;36.47;98775.19;6133810;23;20020;-96
2022/08/16 08:27:53;;;;;;;5.80;3.70;;;;;;;29.02;36.74;98766.13;6112087;23;19913;-94
2022/08/16 08:30:25;;;;;;;4.93;3.63;;;;;;;28.96;36.24;98763.00;6107747;23;20056;-96
2022/08/16 08:33:11;;;;;;;4.45;3.50;;;;;;;29.09;36.66;98763.28;6143998;23;20012;-94
2022/08/16 08:35:37;;;;;;;7.95;4.18;;;;;;;29.14;36.94;98757.34;6192171;23;20034;-92
2022/08/16 08:38:09;;;;;;;6.32;4.30;;;;;;;29.05;37.20;98732.03;6160522;23;20005;-92
2022/08/16 08:40:57;;;;;;;6.80;4.65;;;;;;;29.17;37.29;98756.50;6156959;23;20020;-89
2022/08/16 08:43:22;;;;;;;7.30;3.92;;;;;;;29.18;37.38;98738.69;6158078;23;20009;-93
2022/08/16 08:45:48;;;;;;;5.20;4.10;;;;;;;29.25;37.34;98748.13;6159292;23;20444;-93
2022/08/16 08:48:13;;;;;;;5.53;4.00;;;;;;;29.24;36.26;98746.56;6138190;23;20409;-91
2022/08/16 08:50:41;;;;;;;5.93;4.30;;;;;;;29.21;36.89;98745.41;6170271;23;20008;-92
2022/08/16 08:53:07;;;;;;;5.05;4.30;;;;;;;29.21;37.04;98748.94;6196543;23;19996;-91
2022/08/16 08:55:33;;;;;;;4.18;3.60;;;;;;;29.18;35.98;98729.59;6220166;23;20043;-94
2022/08/16 08:58:00;;;;;;;6.72;4.15;;;;;;;29.34;35.88;98751.22;6171114;23;20007;-92
2022/08/16 09:00:27;;;;;;;5.35;4.22;;;;;;;29.45;36.32;98745.56;6219633;23;20003;-91
2022/08/16 09:02:53;;;;;;;5.65;4.18;;;;;;;29.66;36.67;98744.56;6195190;23;20386;-91
2022/08/16 09:05:21;;;;;;;4.82;3.90;;;;;;;29.88;35.33;98772.88;6197868;23;20004;-94
2022/08/16 09:07:46;;;;;;;6.07;4.53;;;;;;;29.75;35.23;98753.22;6209991;22;20057;-94
2022/08/16 09:10:16;;;;;;;6.90;5.20;;;;;;;29.85;35.49;98737.66;6230915;22;19995;-93
2022/08/16 09:12:45;;;;;;;9.25;5.97;;;;;;;30.12;36.08;98732.94;6232794;22;20003;-93
2022/08/16 09:15:12;;;;;;;6.53;4.70;;;;;;;30.29;35.55;98733.13;6250855;22;20007;-91
2022/08/16 09:17:41;;;;;;;8.75;5.47;;;;;;;30.35;35.57;98750.94;6203474;22;20019;-95
2022/08/16 09:20:12;;;;;;;5.32;4.30;;;;;;;30.47;34.03;98744.81;6233518;22;20004;-95
2022/08/16 09:22:41;;;;;;;6.93;4.28;;;;;;;30.61;34.33;98749.38;6205740;22;20011;-94
2022/08/16 09:25:09;;;;;;;5.65;4.78;;;;;;;30.65;34.55;98744.53;6229273;22;19999;-94
2022/08/16 09:27:35;;;;;;;6.97;4.70;;;;;;;30.88;33.51;98760.50;6202589;22;19996;-94
2022/08/16 09:30:01;;;;;;;5.45;4.25;;;;;;;30.55;33.58;98746.28;6226927;22;20401;-94
2022/08/16 09:32:31;;;;;;;5.20;4.38;;;;;;;30.72;33.28;98747.22;6227196;22;20489;-95
2022/08/16 09:34:58;;;;;;;5.55;4.05;;;;;;;30.79;32.22;98741.53;6256291;22;20011;-94
2022/08/16 09:37:25;;;;;;;5.57;4.57;;;;;;;30.86;32.13;98739.84;6227716;22;20101;-95
2022/08/16 09:39:50;;;;;;;6.60;4.60;;;;;;;30.92;33.41;98746.53;6251869;22;20010;-95
2022/08/16 09:42:17;;;;;;;8.23;4.72;;;;;;;30.87;32.46;98739.47;6279601;22;19995;-95
2022/08/16 09:44:42;;;;;;;6.45;4.80;;;;;;;31.02;32.02;98743.59;6252794;22;20057;-93
2022/08/16 09:47:10;;;;;;;5.43;4.00;;;;;;;30.89;31.75;98733.50;6225515;22;20003;-93
2022/08/16 09:49:36;;;;;;;5.38;4.55;;;;;;;30.95;31.66;98723.47;6216236;22;20015;-95
2022/08/16 09:52:06;;;;;;;5.53;4.10;;;;;;;30.91;32.19;98726.28;6266187;22;20434;-94
2022/08/16 09:54:35;;;;;;;7.20;4.60;;;;;;;30.94;32.41;98733.00;6278454;22;19992;-94
2022/08/16 09:57:01;;;;;;;4.90;4.13;;;;;;;30.89;32.37;98719.59;6200721;22;20034;-93
2022/08/16 09:59:26;;;;;;;5.95;4.80;;;;;;;30.88;32.83;98731.91;6200066;22;19999;-94
2022/08/16 10:01:52;;;;;;;5.28;3.83;;;;;;;30.67;32.75;98733.78;6225430;22;20006;-94
2022/08/16 10:04:18;;;;;;;4.75;3.97;;;;;;;30.83;32.58;98742.25;6224292;22;20382;-93
2022/08/16 10:06:46;;;;;;;5.68;3.92;;;;;;;30.76;33.26;98733.28;6200289;22;20011;-93
2022/08/16 10:09:12;;;;;;;5.22;3.97;;;;;;;30.75;32.49;98729.69;6200447;22;20031;-92
2022/08/16 10:14:34;;;;;;;4.47;4.05;;;;;;;31.16;32.15;98747.34;6255943;22;20007;-95
2022/08/16 10:17:04;;;;;;;4.80;3.80;;;;;;;31.05;31.81;98730.84;6226132;22;20007;-92
2022/08/16 10:19:30;;;;;;;4.53;4.00;;;;;;;31.17;32.78;98740.56;6200781;22;20000;-93
2022/08/16 10:21:57;;;;;;;5.03;3.90;;;;;;;31.13;32.56;98734.25;6250130;22;20347;-92
2022/08/16 10:24:26;;;;;;;6.55;4.28;;;;;;;31.39;32.05;98730.63;6224145;22;20038;-93
2022/08/16 10:26:52;;;;;;;5.40;3.95;;;;;;;31.35;32.17;98715.22;6250755;22;20006;-94
2022/08/16 10:29:19;;;;;;;6.53;4.07;;;;;;;31.54;33.00;98738.75;6249719;22;20007;-94
2022/08/16 10:31:51;;;;;;;6.43;4.40;;;;;;;31.52;31.61;98735.59;6201110;22;20014;-94
2022/08/16 10:34:16;;;;;;;5.32;3.80;;;;;;;31.48;31.65;98730.13;6250965;22;20023;-92
2022/08/16 10:36:42;;;;;;;5.20;4.13;;;;;;;31.37;31.11;98733.03;6251332;22;20003;-95
2022/08/16 10:39:07;;;;;;;5.82;4.18;;;;;;;31.27;31.03;98731.25;6250260;22;19999;-94
2022/08/16 10:41:34;;;;;;;6.05;3.90;;;;;;;31.31;31.50;98728.41;6225806;22;20072;-95
2022/08/16 10:44:01;;;;;;;5.70;4.00;;;;;;;31.47;31.33;98742.44;6248837;22;20018;-93
2022/08/16 10:46:29;;;;;;;6.07;4.50;;;;;;;31.58;30.80;98726.31;6248581;22;20497;-93
2022/08/16 10:48:55;;;;;;;6.50;4.60;;;;;;;31.86;31.49;98729.78;6256846;22;20016;-94
2022/08/16 10:51:22;;;;;;;8.43;6.03;;;;;;;32.06;30.72;98729.00;6268606;22;20015;-91
2022/08/16 10:53:48;;;;;;;8.43;4.18;;;;;;;32.20;30.37;98717.56;6210233;22;20015;-93
2022/08/16 10:56:17;;;;;;;6.63;5.00;;;;;;;32.57;30.23;98738.66;6262127;22;20022;-94
2022/08/16 10:58:43;;;;;;;8.55;4.45;;;;;;;32.69;29.80;98722.47;6214736;22;20026;-92
2022/08/16 11:01:14;;;;;;;5.45;4.35;;;;;;;32.67;29.43;98713.75;6238127;22;20000;-93
2022/08/16 11:03:40;;;;;;;5.15;4.03;;;;;;;32.63;28.96;98727.00;6266753;22;20430;-92
2022/08/16 11:06:08;;;;;;;4.22;3.83;;;;;;;32.74;29.31;98744.25;6241609;22;20011;-95
2022/08/16 11:08:34;;;;;;;5.72;4.22;;;;;;;32.57;28.45;98723.94;6194880;23;20431;-95
2022/08/16 11:11:07;;;;;;;6.07;3.85;;;;;;;32.59;28.70;98722.28;6172458;23;20015;-94
2022/08/16 11:13:47;;;;;;;7.65;4.88;;;;;;;32.61;29.69;98733.00;6194725;23;20000;-93
2022/08/16 11:16:15;;;;;;;4.78;3.60;;;;;;;32.16;29.89;98706.47;6248989;23;19996;-94
2022/08/16 11:19:08;;;;;;;5.22;3.83;;;;;;;32.13;29.20;98710.16;6225927;23;20004;-95
2022/08/16 11:21:36;;;;;;;6.18;3.67;;;;;;;32.23;28.87;98694.41;6139940;23;20009;-96
2022/08/16 11:24:04;;;;;;;5.05;4.18;;;;;;;32.00;29.35;98712.00;6144818;23;19985;-96
2022/08/16 11:26:30;;;;;;;5.20;3.42;;;;;;;31.97;28.37;98704.50;6172766;23;20061;-93
2022/08/16 11:32:46;;;;;;;4.05;3.50;;;;;;;31.85;27.83;98711.50;6175784;23;20041;-94
2022/08/16 11:35:20;;;;;;;4.32;3.33;;;;;;;31.83;28.36;98700.00;6117812;23;20016;-96
2022/08/16 11:37:51;;;;;;;3.70;3.40;;;;;;;31.75;28.63;98698.56;6114722;23;20009;-95
2022/08/16 11:40:21;;;;;;;4.75;3.60;;;;;;;31.74;28.70;98711.72;6159015;23;20009;-94
2022/08/16 11:42:56;;;;;;;4.13;3.72;;;;;;;31.56;28.70;98716.84;6143459;23;20012;-96
2022/08/16 11:45:22;;;;;;;6.10;3.60;;;;;;;31.48;28.88;98707.06;6137091;23;20005;-92
2022/08/16 11:47:48;;;;;;;5.25;3.80;;;;;;;31.31;29.83;98692.25;6105029;23;20096;-95
2022/08/16 11:50:23;;;;;;;3.67;3.33;;;;;;;31.59;28.78;98713.22;6103941;23;20114;-94
2022/08/16 11:52:49;;;;;;;6.43;3.47;;;;;;;31.65;28.96;98705.13;6162987;23;20000;-93